Time;durP1;ratioP1;P1;durP2;ratioP2;P2;SDS_P1;SDS_P2;PMS_P1;PMS_P2;Temp;Humidity;BMP_temperature;BMP_pressure;BME280_temperature;BME280_humidity;BME280_pressure;Samples;Min_cycle;Max_cycle;Signal;HPM_P1;HPM_P2
2022/09/14 00:01:27;;;;;;;;;;;;;;;-144.99;100.00;52266.69;5104215;28;19916;-75
2022/09/14 00:03:54;;;;;;;;;;;;;;;-144.99;100.00;52272.81;5108598;28;19928;-75
2022/09/14 00:06:21;;;;;;;;;;;;;;;-144.99;100.00;52276.88;5112566;28;19928;-75
2022/09/14 00:08:51;;;;;;;;;;;;;;;-144.99;100.00;52276.88;5104054;28;19919;-72
2022/09/14 00:11:18;;;;;;;;;;;;;;;-144.99;100.00;52270.78;5112122;28;19954;-74
2022/09/14 00:13:45;;;;;;;;;;;;;;;-144.99;100.00;52272.81;5110305;28;19924;-75
2022/09/14 00:16:14;;;;;;;;;;;;;;;-144.99;100.00;52313.56;5106006;28;19943;-74
2022/09/14 00:18:40;;;;;;;;;;;;;;;-144.99;100.00;52276.88;5111706;28;19927;-76
2022/09/14 00:21:07;;;;;;;;;;;;;;;-144.99;100.00;52317.66;5112148;28;19928;-75
2022/09/14 00:23:35;;;;;;;;;;;;;;;-144.99;100.00;52317.66;5098312;28;19912;-76
2022/09/14 00:26:06;;;;;;;;;;;;;;;-144.99;100.00;52276.88;5107888;28;19981;-75
2022/09/14 00:28:36;;;;;;;;;;;;;;;-144.99;100.00;52276.88;5112286;28;20053;-76
2022/09/14 00:31:03;;;;;;;;;;;;;;;-144.99;100.00;52293.19;5109096;28;19946;-76
2022/09/14 00:33:29;;;;;;;;;;;;;;;-144.99;100.00;52309.50;5100028;28;19912;-76
2022/09/14 00:35:56;;;;;;;;;;;;;;;-144.99;100.00;52313.56;5111769;28;19928;-76
2022/09/14 00:38:25;;;;;;;;;;;;;;;-144.99;100.00;52262.63;5111507;28;20086;-73
2022/09/14 00:40:56;;;;;;;;;;;;;;;-144.99;100.00;52317.66;5109342;28;19977;-74
2022/09/14 00:43:24;;;;;;;;;;;;;;;-144.99;100.00;52268.72;5099422;28;19938;-75
2022/09/14 00:45:51;;;;;;;;;;;;;;;-144.99;100.00;52266.69;5104917;28;19943;-75
2022/09/14 00:48:18;;;;;;;;;;;;;;;-144.99;100.00;52268.72;5098255;28;19955;-75
2022/09/14 00:50:44;;;;;;;;;;;;;;;-144.99;100.00;52305.41;5103771;28;19954;-76
2022/09/14 00:53:11;;;;;;;;;;;;;;;-144.99;100.00;52260.56;5098812;28;19927;-76
2022/09/14 00:55:37;;;;;;;;;;;;;;;-144.99;100.00;52236.13;5108940;28;19916;-75
2022/09/14 00:58:04;;;;;;;;;;;;;;;-144.99;100.00;52321.72;5109173;28;19945;-75
2022/09/14 01:00:32;;;;;;;;;;;;;;;-144.99;100.00;52313.56;5106075;28;19928;-75
2022/09/14 01:02:59;;;;;;;;;;;;;;;-144.99;100.00;52293.19;5106129;28;19928;-76
2022/09/14 01:05:30;;;;;;;;;;;;;;;-144.99;100.00;52256.50;5108894;28;19992;-74
2022/09/14 01:08:04;;;;;;;;;;;;;;;-144.99;100.00;52258.53;5109640;28;19916;-75
2022/09/14 01:10:41;;;;;;;;;;;;;;;-144.99;100.00;52264.66;5109424;28;19924;-76
2022/09/14 01:13:18;;;;;;;;;;;;;;;-144.99;100.00;52301.34;5107177;28;19938;-76
2022/09/14 01:15:51;;;;;;;;;;;;;;;-144.99;100.00;52293.19;5105474;28;19927;-75
2022/09/14 01:18:21;;;;;;;;;;;;;;;-144.99;100.00;52272.81;5108642;28;19993;-73
2022/09/14 01:20:50;;;;;;;;;;;;;;;-144.99;100.00;52321.72;5109813;28;19916;-72
2022/09/14 01:23:22;;;;;;;;;;;;;;;-144.99;100.00;52313.56;5107769;28;19946;-75
2022/09/14 01:26:00;;;;;;;;;;;;;;;-144.99;100.00;52256.50;5099191;28;19951;-76
2022/09/14 01:28:32;;;;;;;;;;;;;;;-144.99;100.00;52234.09;5108694;28;19912;-77
2022/09/14 01:31:02;;;;;;;;;;;;;;;-144.99;100.00;52297.25;5109727;28;19930;-76
2022/09/14 01:33:32;;;;;;;;;;;;;;;-144.99;100.00;52260.56;5099751;28;19912;-74
2022/09/14 01:36:00;;;;;;;;;;;;;;;-144.99;100.00;52313.56;5111624;28;19935;-76
2022/09/14 01:38:31;;;;;;;;;;;;;;;-144.99;100.00;52280.97;5112190;28;19976;-76
2022/09/14 01:40:59;;;;;;;;;;;;;;;-144.99;100.00;52338.03;5110917;28;19912;-76
2022/09/14 01:43:28;;;;;;;;;;;;;;;-144.99;100.00;52268.72;5100738;28;19912;-72
2022/09/14 01:45:59;;;;;;;;;;;;;;;-144.99;100.00;52264.66;5091141;28;20439;-73
2022/09/14 01:48:30;;;;;;;;;;;;;;;-144.99;100.00;52329.88;5078245;28;19932;-77
2022/09/14 01:50:58;;;;;;;;;;;;;;;-144.99;100.00;52260.56;5081963;28;20300;-76
2022/09/14 01:53:28;;;;;;;;;;;;;;;-144.99;100.00;52346.19;5075789;28;20069;-74
2022/09/14 01:55:56;;;;;;;;;;;;;;;-144.99;100.00;52256.50;5090284;28;19924;-75
2022/09/14 01:58:26;;;;;;;;;;;;;;;-144.99;100.00;52327.84;5089872;28;19961;-75
2022/09/14 02:00:54;;;;;;;;;;;;;;;-144.99;100.00;52293.19;5088370;28;19924;-72
2022/09/14 02:03:25;;;;;;;;;;;;;;;-144.99;100.00;52276.88;5085881;28;19924;-75
2022/09/14 02:05:55;;;;;;;;;;;;;;;-144.99;100.00;52325.81;5089014;28;19932;-75
2022/09/14 02:08:22;;;;;;;;;;;;;;;-144.99;100.00;52317.66;5092659;28;20386;-77
2022/09/14 02:10:49;;;;;;;;;;;;;;;-144.99;100.00;52285.03;5091468;28;19924;-76
2022/09/14 02:13:15;;;;;;;;;;;;;;;-144.99;100.00;52278.91;5090712;28;19981;-76
2022/09/14 02:15:42;;;;;;;;;;;;;;;-144.99;100.00;52289.13;5090413;28;19928;-75
2022/09/14 02:18:08;;;;;;;;;;;;;;;-144.99;100.00;52297.25;5089662;28;19932;-77
2022/09/14 02:20:40;;;;;;;;;;;;;;;-144.99;100.00;52309.50;5086302;28;20128;-76
2022/09/14 02:23:07;;;;;;;;;;;;;;;-144.99;100.00;52293.19;5086496;28;19924;-77
2022/09/14 02:25:35;;;;;;;;;;;;;;;-144.99;100.00;52325.81;5089241;28;20085;-77
2022/09/14 02:28:01;;;;;;;;;;;;;;;-144.99;100.00;52276.88;5086878;28;19932;-77
2022/09/14 02:30:32;;;;;;;;;;;;;;;-144.99;100.00;52309.50;5080558;28;20019;-77
2022/09/14 02:33:03;;;;;;;;;;;;;;;-144.99;100.00;52313.56;5087056;28;19984;-77
2022/09/14 02:35:34;;;;;;;;;;;;;;;-144.99;100.00;52289.13;5091513;28;19939;-76
2022/09/14 02:38:08;;;;;;;;;;;;;;;-144.99;100.00;52280.97;5079949;28;19955;-74
2022/09/14 02:40:36;;;;;;;;;;;;;;;-144.99;100.00;52272.81;5091231;28;19931;-77
2022/09/14 02:43:09;;;;;;;;;;;;;;;-144.99;100.00;52289.13;5084612;28;19975;-77
2022/09/14 02:45:39;;;;;;;;;;;;;;;-144.99;100.00;52376.75;5086302;28;19931;-76
2022/09/14 02:48:12;;;;;;;;;;;;;;;-144.99;100.00;52301.34;5079090;28;19932;-77
2022/09/14 02:50:44;;;;;;;;;;;;;;;-144.99;100.00;52303.38;5076262;28;20429;-76
2022/09/14 02:53:14;;;;;;;;;;;;;;;-144.99;100.00;52289.13;5089388;28;20038;-76
2022/09/14 02:55:43;;;;;;;;;;;;;;;-144.99;100.00;52289.13;5094172;28;19928;-74
2022/09/14 02:58:11;;;;;;;;;;;;;;;-144.99;100.00;52272.81;5103490;28;19985;-76
2022/09/14 03:00:39;;;;;;;;;;;;;;;-144.99;100.00;52293.19;5104888;28;19954;-78
2022/09/14 03:03:06;;;;;;;;;;;;;;;-144.99;100.00;52293.19;5088487;28;20351;-79
2022/09/14 03:05:33;;;;;;;;;;;;;;;-144.99;100.00;52297.25;5090060;28;19931;-73
2022/09/14 03:07:59;;;;;;;;;;;;;;;-144.99;100.00;52309.50;5092127;28;19931;-76
2022/09/14 03:10:27;;;;;;;;;;;;;;;-144.99;100.00;52272.81;5092288;28;20006;-76
2022/09/14 03:12:54;;;;;;;;;;;;;;;-144.99;100.00;52268.72;5087829;28;20379;-76
2022/09/14 03:15:20;;;;;;;;;;;;;;;-144.99;100.00;52313.56;5083874;28;19924;-72
2022/09/14 03:17:47;;;;;;;;;;;;;;;-144.99;100.00;52260.56;5108243;22;19924;-72
2022/09/14 03:20:14;;;;;;;;;;;;;;;-144.99;100.00;52272.81;5089164;28;19924;-73
2022/09/14 03:22:41;;;;;;;;;;;;;;;-144.99;100.00;52317.66;5088724;28;19943;-73
2022/09/14 03:25:08;;;;;;;;;;;;;;;-144.99;100.00;52280.97;5089295;28;20418;-73
2022/09/14 03:27:36;;;;;;;;;;;;;;;-144.99;100.00;52293.19;5088894;28;19924;-72
2022/09/14 03:30:03;;;;;;;;;;;;;;;-144.99;100.00;52331.91;5088962;28;20395;-74
2022/09/14 03:32:29;;;;;;;;;;;;;;;-144.99;100.00;52260.56;5085467;28;19930;-73
2022/09/14 03:34:56;;;;;;;;;;;;;;;-144.99;100.00;52262.63;5088634;28;19931;-74
2022/09/14 03:37:23;;;;;;;;;;;;;;;-144.99;100.00;52276.88;5088418;28;19924;-73
2022/09/14 03:39:49;;;;;;;;;;;;;;;-144.99;100.00;52313.56;5089288;28;20284;-73
2022/09/14 03:42:16;;;;;;;;;;;;;;;-144.99;100.00;52319.69;5086995;28;19939;-73
2022/09/14 03:44:44;;;;;;;;;;;;;;;-144.99;100.00;52293.19;5086310;28;19924;-73
2022/09/14 03:47:10;;;;;;;;;;;;;;;-144.99;100.00;52289.13;5080105;28;20019;-75
2022/09/14 03:49:37;;;;;;;;;;;;;;;-144.99;100.00;52272.81;5088650;28;20099;-73
2022/09/14 03:52:03;;;;;;;;;;;;;;;-144.99;100.00;52297.25;5077581;28;19964;-73
2022/09/14 03:54:30;;;;;;;;;;;;;;;-144.99;100.00;52313.56;5085705;28;19928;-72
2022/09/14 03:56:56;;;;;;;;;;;;;;;-144.99;100.00;52280.97;5087512;28;19956;-73
2022/09/14 03:59:22;;;;;;;;;;;;;;;-144.99;100.00;52280.97;5088883;28;20019;-71
2022/09/14 04:01:50;;;;;;;;;;;;;;;-144.99;100.00;52260.56;5085858;28;19970;-72
2022/09/14 04:04:17;;;;;;;;;;;;;;;-144.99;100.00;52262.63;5087560;28;19967;-71
2022/09/14 04:06:43;;;;;;;;;;;;;;;-144.99;100.00;52331.91;5088165;28;19928;-70
2022/09/14 04:09:10;;;;;;;;;;;;;;;-144.99;100.00;52268.72;5088214;28;19931;-72
2022/09/14 04:11:36;;;;;;;;;;;;;;;-144.99;100.00;52309.50;5076994;28;20001;-72
2022/09/14 04:14:04;;;;;;;;;;;;;;;-144.99;100.00;52276.88;5083547;28;19932;-71
2022/09/14 04:16:30;;;;;;;;;;;;;;;-144.99;100.00;52305.41;5085999;28;20470;-72
2022/09/14 04:18:58;;;;;;;;;;;;;;;-144.99;100.00;52272.81;5088472;28;19975;-71
2022/09/14 04:21:25;;;;;;;;;;;;;;;-144.99;100.00;52260.56;5087934;28;19936;-71
2022/09/14 04:23:52;;;;;;;;;;;;;;;-144.99;100.00;52289.13;5087816;28;20034;-71
2022/09/14 04:26:19;;;;;;;;;;;;;;;-144.99;100.00;52303.38;5082659;28;20291;-72
2022/09/14 04:28:46;;;;;;;;;;;;;;;-144.99;100.00;52280.97;5086887;28;19964;-76
2022/09/14 04:31:14;;;;;;;;;;;;;;;-144.99;100.00;52289.13;5087188;28;20409;-76
2022/09/14 04:33:41;;;;;;;;;;;;;;;-144.99;100.00;52276.88;5088133;28;19982;-78
2022/09/14 04:36:10;;;;;;;;;;;;;;;-144.99;100.00;52260.56;5080213;28;19971;-77
2022/09/14 04:38:37;;;;;;;;;;;;;;;-144.99;100.00;52313.56;5088140;28;19959;-78
2022/09/14 04:41:04;;;;;;;;;;;;;;;-144.99;100.00;52293.19;5088592;28;20235;-75
2022/09/14 04:43:31;;;;;;;;;;;;;;;-144.99;100.00;52289.13;5087164;28;19924;-77
2022/09/14 04:46:01;;;;;;;;;;;;;;;-144.99;100.00;52280.97;5087599;28;19946;-77
2022/09/14 04:48:27;;;;;;;;;;;;;;;-144.99;100.00;52293.19;5091205;28;20283;-77
2022/09/14 04:50:54;;;;;;;;;;;;;;;-144.99;100.00;52305.41;5088687;28;19987;-78
2022/09/14 04:53:21;;;;;;;;;;;;;;;-144.99;100.00;52276.88;5088059;28;20525;-78
2022/09/14 04:55:48;;;;;;;;;;;;;;;-144.99;100.00;52285.03;5086746;28;20015;-76
2022/09/14 04:58:14;;;;;;;;;;;;;;;-144.99;100.00;52256.50;5085350;28;20023;-77
2022/09/14 05:00:41;;;;;;;;;;;;;;;-144.99;100.00;52260.56;5088295;28;20008;-78
2022/09/14 05:03:07;;;;;;;;;;;;;;;-144.99;100.00;52317.66;5085697;28;20003;-77
2022/09/14 05:05:35;;;;;;;;;;;;;;;-144.99;100.00;52301.34;5090623;28;19924;-78
2022/09/14 05:08:01;;;;;;;;;;;;;;;-144.99;100.00;52321.72;5089705;28;19931;-76
2022/09/14 05:10:29;;;;;;;;;;;;;;;-144.99;100.00;52309.50;5089324;28;20019;-78
2022/09/14 05:13:04;;;;;;;;;;;;;;;-144.99;100.00;52299.31;4689108;28;10000717;-76
2022/09/14 05:15:31;;;;;;;;;;;;;;;-144.99;100.00;52309.50;5084375;28;19992;-74
2022/09/14 05:17:57;;;;;;;;;;;;;;;-144.99;100.00;52309.50;5083142;28;20443;-80
2022/09/14 05:20:24;;;;;;;;;;;;;;;-144.99;100.00;52323.75;5087774;28;20697;-75
2022/09/14 05:22:51;;;;;;;;;;;;;;;-144.99;100.00;52278.91;5086881;28;20379;-77
2022/09/14 05:25:17;;;;;;;;;;;;;;;-144.99;100.00;52287.06;5086349;28;19950;-76
2022/09/14 05:27:45;;;;;;;;;;;;;;;-144.99;100.00;52256.50;5084373;28;19924;-74
2022/09/14 05:30:12;;;;;;;;;;;;;;;-144.99;100.00;52264.66;5085574;28;19959;-77
2022/09/14 05:32:38;;;;;;;;;;;;;;;-144.99;100.00;52264.66;5083922;28;20048;-74
2022/09/14 05:35:05;;;;;;;;;;;;;;;-144.99;100.00;52293.19;5084694;28;19924;-75
2022/09/14 05:37:31;;;;;;;;;;;;;;;-144.99;100.00;52293.19;5083431;28;20434;-75
2022/09/14 05:39:58;;;;;;;;;;;;;;;-144.99;100.00;52289.13;5084016;28;20030;-74
2022/09/14 05:42:24;;;;;;;;;;;;;;;-144.99;100.00;52301.34;5082955;28;20062;-74
2022/09/14 05:44:52;;;;;;;;;;;;;;;-144.99;100.00;52266.69;5084190;28;20019;-74
2022/09/14 05:47:18;;;;;;;;;;;;;;;-144.99;100.00;52297.25;5082617;28;20027;-75
2022/09/14 05:49:45;;;;;;;;;;;;;;;-144.99;100.00;52272.81;5084872;28;20002;-74
2022/09/14 05:52:11;;;;;;;;;;;;;;;-144.99;100.00;52246.31;5083751;28;19924;-75
2022/09/14 05:54:38;;;;;;;;;;;;;;;-144.99;100.00;52244.28;5084185;28;19928;-75
2022/09/14 05:57:04;;;;;;;;;;;;;;;-144.99;100.00;52260.56;5083647;28;20024;-74
2022/09/14 05:59:31;;;;;;;;;;;;;;;-144.99;100.00;52309.50;5084314;28;19927;-74
2022/09/14 06:01:58;;;;;;;;;;;;;;;-144.99;100.00;52293.19;5082079;28;19972;-74
2022/09/14 06:04:25;;;;;;;;;;;;;;;-144.99;100.00;52295.22;5083548;28;19928;-76
2022/09/14 06:06:52;;;;;;;;;;;;;;;-144.99;100.00;52276.88;5084779;28;19928;-75
2022/09/14 06:09:18;;;;;;;;;;;;;;;-144.99;100.00;52280.97;5084044;28;20395;-74
2022/09/14 06:11:44;;;;;;;;;;;;;;;-144.99;100.00;52227.97;5083962;28;20022;-75
2022/09/14 06:14:11;;;;;;;;;;;;;;;-144.99;100.00;52264.66;5082701;28;20019;-74
2022/09/14 06:16:37;;;;;;;;;;;;;;;-144.99;100.00;52227.97;5082574;28;20012;-75
2022/09/14 06:19:05;;;;;;;;;;;;;;;-144.99;100.00;52260.56;5084600;28;20416;-74
2022/09/14 06:21:32;;;;;;;;;;;;;;;-144.99;100.00;52244.28;5084979;28;19956;-75
2022/09/14 06:23:59;;;;;;;;;;;;;;;-144.99;100.00;52289.13;5085641;28;19987;-74
2022/09/14 06:26:26;;;;;;;;;;;;;;;-144.99;100.00;52252.44;5080541;28;19959;-75
2022/09/14 06:28:52;;;;;;;;;;;;;;;-144.99;100.00;52244.28;5086338;28;19967;-75
2022/09/14 06:31:21;;;;;;;;;;;;;;;-144.99;100.00;52264.66;5083807;28;20399;-76
2022/09/14 06:33:48;;;;;;;;;;;;;;;-144.99;100.00;52248.34;5084103;28;19967;-76
2022/09/14 06:36:18;;;;;;;;;;;;;;;-144.99;100.00;52246.31;5085025;28;20026;-76
2022/09/14 06:38:45;;;;;;;;;;;;;;;-144.99;100.00;52258.53;5073232;28;20472;-75
2022/09/14 06:41:12;;;;;;;;;;;;;;;-144.99;100.00;52238.16;5084939;28;20022;-74
2022/09/14 06:43:39;;;;;;;;;;;;;;;-144.99;100.00;52276.88;5085172;28;20003;-76
2022/09/14 06:46:07;;;;;;;;;;;;;;;-144.99;100.00;52240.19;5085563;28;20047;-76
2022/09/14 06:48:35;;;;;;;;;;;;;;;-144.99;100.00;52276.88;5086985;28;19956;-75
2022/09/14 06:51:10;;;;;;;;;;;;;;;-144.99;100.00;52244.28;5085928;28;20024;-76
2022/09/14 06:53:38;;;;;;;;;;;;;;;-144.99;100.00;52264.66;5092829;28;19943;-74
2022/09/14 06:56:04;;;;;;;;;;;;;;;-144.99;100.00;52232.03;5087503;28;20407;-75
2022/09/14 06:58:32;;;;;;;;;;;;;;;-144.99;100.00;52223.88;5090156;28;20067;-77
2022/09/14 07:01:01;;;;;;;;;;;;;;;-144.99;100.00;52244.28;5087987;28;20123;-77
2022/09/14 07:03:27;;;;;;;;;;;;;;;-144.99;100.00;52207.59;5086385;28;20335;-76
2022/09/14 07:06:00;;;;;;;;;;;;;;;-144.99;100.00;52260.56;5088208;28;19943;-77
2022/09/14 07:08:28;;;;;;;;;;;;;;;-144.99;99.55;52234.09;5088442;28;20031;-76
2022/09/14 07:10:58;;;;;;;;;;;;;;;-144.99;97.37;52219.81;5089454;28;20416;-77
2022/09/14 07:13:25;;;;;;;;;;;;;;;-144.99;96.66;52199.44;5084192;28;20031;-78
2022/09/14 07:15:52;;;;;;;;;;;;;;;-144.99;92.87;52207.59;5089078;28;19931;-75
2022/09/14 07:18:18;;;;;;;;;;;;;;;-144.99;89.69;52207.59;5086866;28;20019;-76
2022/09/14 07:20:45;;;;;;;;;;;;;;;-144.99;88.58;52215.75;5087825;28;20011;-77
2022/09/14 07:23:12;;;;;;;;;;;;;;;-144.99;87.12;52187.19;5087103;28;20405;-78
2022/09/14 07:25:39;;;;;;;;;;;;;;;-144.99;86.51;52207.59;5087308;28;19924;-77
2022/09/14 07:28:07;;;;;;;;;;;;;;;-144.99;85.65;52205.53;5088432;28;20318;-76
2022/09/14 07:30:35;;;;;;;;;;;;;;;-144.99;84.96;52187.19;5089645;28;19994;-74
2022/09/14 07:33:01;;;;;;;;;;;;;;;-144.99;84.73;52199.44;5090975;28;20036;-77
2022/09/14 07:35:28;;;;;;;;;;;;;;;-144.99;82.14;52219.81;5090374;28;19935;-77
2022/09/14 07:37:54;;;;;;;;;;;;;;;-144.99;79.47;52187.19;5088825;28;19938;-78
2022/09/14 07:40:22;;;;;;;;;;;;;;;-144.99;78.57;52199.44;5092465;28;19991;-77
2022/09/14 07:42:50;;;;;;;;;;;;;;;-144.99;78.10;52183.13;5092258;28;19928;-77
2022/09/14 07:45:18;;;;;;;;;;;;;;;-144.99;75.70;52170.91;5092517;28;19959;-77
2022/09/14 07:47:44;;;;;;;;;;;;;;;-144.99;74.30;52199.44;5087874;28;20387;-78
2022/09/14 07:50:11;;;;;;;;;;;;;;;-144.99;73.01;52164.78;5090659;28;20001;-78
2022/09/14 07:52:38;;;;;;;;;;;;;;;-144.99;72.00;52195.34;5087059;28;20407;-77
2022/09/14 07:55:05;;;;;;;;;;;;;;;-144.99;70.69;52179.06;5088135;28;19953;-79
2022/09/14 07:57:31;;;;;;;;;;;;;;;-144.99;70.17;52174.97;5087278;28;20379;-76
2022/09/14 07:59:58;;;;;;;;;;;;;;;-144.99;70.92;52177.00;5087530;28;20387;-76
2022/09/14 08:02:27;;;;;;;;;;;;;;;-144.99;71.37;52209.63;5084815;28;20015;-77
2022/09/14 08:04:54;;;;;;;;;;;;;;;-144.99;69.79;52232.03;5088282;28;19924;-76
2022/09/14 08:07:20;;;;;;;;;;;;;;;-144.99;68.47;52154.59;5088014;28;19928;-77
2022/09/14 08:09:47;;;;;;;;;;;;;;;-144.99;66.52;52174.97;5086529;28;20025;-76
2022/09/14 08:12:15;;;;;;;;;;;;;;;-144.99;66.68;52203.50;5084308;28;19963;-76
2022/09/14 08:14:41;;;;;;;;;;;;;;;-144.99;67.17;52203.50;5084804;28;19924;-76
2022/09/14 08:17:09;;;;;;;;;;;;;;;-144.99;67.00;52179.06;5084971;28;19936;-77
2022/09/14 08:19:37;;;;;;;;;;;;;;;-144.99;67.29;52166.81;5086549;28;19931;-76
2022/09/14 08:22:03;;;;;;;;;;;;;;;-144.99;66.69;52203.50;5085164;28;20421;-76
2022/09/14 08:24:31;;;;;;;;;;;;;;;-144.99;66.20;52191.28;5086764;28;19935;-76
2022/09/14 08:26:57;;;;;;;;;;;;;;;-144.99;66.03;52221.84;5082398;28;19946;-75
2022/09/14 08:29:24;;;;;;;;;;;;;;;-144.99;65.46;52215.75;5085874;28;20017;-75
2022/09/14 08:31:50;;;;;;;;;;;;;;;-144.99;65.18;52238.16;5083092;28;19979;-76
2022/09/14 08:34:17;;;;;;;;;;;;;;;-144.99;65.12;52205.53;5086359;28;20118;-74
2022/09/14 08:36:45;;;;;;;;;;;;;;;-144.99;65.27;52203.50;5086255;28;20302;-76
2022/09/14 08:39:12;;;;;;;;;;;;;;;-144.99;64.55;52207.59;5088329;28;20379;-76
2022/09/14 08:41:41;;;;;;;;;;;;;;;-144.99;64.02;52195.34;5084453;28;19975;-77
2022/09/14 08:44:13;;;;;;;;;;;;;;;-144.99;63.62;52179.06;5085753;28;19973;-76
2022/09/14 08:46:43;;;;;;;;;;;;;;;-144.99;62.63;52172.94;5084206;28;19974;-76
2022/09/14 08:49:13;;;;;;;;;;;;;;;-144.99;61.62;52174.97;5086285;28;20031;-76
2022/09/14 08:51:40;;;;;;;;;;;;;;;-144.99;60.39;52193.31;5076246;28;20019;-77
2022/09/14 08:54:09;;;;;;;;;;;;;;;-144.99;59.83;52183.13;5084635;28;19931;-76
2022/09/14 08:56:39;;;;;;;;;;;;;;;-144.99;59.02;52193.31;5084758;28;20375;-76
2022/09/14 08:59:24;;;;;;;;;;;;;;;-144.99;59.54;52170.91;5086266;28;19995;-76
2022/09/14 09:01:54;;;;;;;;;;;;;;;-144.99;59.71;52187.19;5085586;28;19928;-77
2022/09/14 09:04:28;;;;;;;;;;;;;;;-144.99;59.87;52207.59;5087481;28;19991;-77
2022/09/14 09:06:57;;;;;;;;;;;;;;;-144.99;59.14;52179.06;5086994;28;19928;-77
2022/09/14 09:09:30;;;;;;;;;;;;;;;-144.99;59.00;52168.84;5087831;28;19983;-79
2022/09/14 09:11:57;;;;;;;;;;;;;;;-144.99;59.01;52193.31;5086712;28;19924;-77
2022/09/14 09:14:29;;;;;;;;;;;;;;;-144.99;58.14;52187.19;5083974;28;20493;-77
2022/09/14 09:16:57;;;;;;;;;;;;;;;-144.99;57.71;52199.44;5097911;22;19942;-72
2022/09/14 09:19:27;;;;;;;;;;;;;;;-144.99;57.33;52183.13;5057067;28;19929;-73
2022/09/14 09:21:53;;;;;;;;;;;;;;;-144.99;57.28;52170.91;5062043;28;20395;-72
2022/09/14 09:24:24;;;;;;;;;;;;;;;-144.99;57.33;52146.44;5073740;28;19928;-73
2022/09/14 09:26:51;;;;;;;;;;;;;;;-144.99;57.45;52179.06;5059993;28;20418;-70
2022/09/14 09:29:18;;;;;;;;;;;;;;;-144.99;57.09;52187.19;5064694;28;19935;-71
2022/09/14 09:31:46;;;;;;;;;;;;;;;-144.99;57.19;52223.88;5062009;28;20458;-73
2022/09/14 09:34:14;;;;;;;;;;;;;;;-144.99;56.27;52174.97;5064413;28;20642;-72
2022/09/14 09:36:41;;;;;;;;;;;;;;;-144.99;56.85;52191.28;5052746;28;20418;-71
2022/09/14 09:39:08;;;;;;;;;;;;;;;-144.99;56.52;52223.88;5063359;28;19929;-73
2022/09/14 09:41:42;;;;;;;;;;;;;;;-144.99;56.27;52234.09;5076581;28;19925;-72
2022/09/14 09:44:10;;;;;;;;;;;;;;;-144.99;56.80;52236.13;5077948;28;19950;-73
2022/09/14 09:46:38;;;;;;;;;;;;;;;-144.99;57.26;52195.34;5073680;28;19960;-72
2022/09/14 09:49:14;;;;;;;;;;;;;;;-144.99;58.30;52221.84;5064318;28;20027;-72
2022/09/14 09:51:41;;;;;;;;;;;;;;;-144.99;58.51;52285.03;5063646;28;19956;-70
2022/09/14 09:54:08;;;;;;;;;;;;;;;-144.99;58.97;52254.47;5064050;28;19932;-71
2022/09/14 09:56:37;;;;;;;;;;;;;;;-144.99;59.95;52260.56;5062918;28;20443;-72
2022/09/14 09:59:20;;;;;;;;;;;;;;;-144.99;60.41;52256.50;5063814;28;19928;-71
2022/09/14 10:01:49;;;;;;;;;;;;;;;-144.99;60.78;52215.75;5051071;28;19932;-71
2022/09/14 10:04:16;;;;;;;;;;;;;;;-144.99;61.34;52256.50;5062948;28;19924;-72
2022/09/14 10:06:44;;;;;;;;;;;;;;;-144.99;61.50;52254.47;5064072;28;19928;-72
2022/09/14 10:09:15;;;;;;;;;;;;;;;-144.99;61.95;52246.31;5063293;28;20347;-72
2022/09/14 10:11:42;;;;;;;;;;;;;;;-144.99;62.17;52236.13;5061908;28;20327;-72
2022/09/14 10:14:20;;;;;;;;;;;;;;;-144.99;62.78;52211.66;5058866;28;19932;-72
2022/09/14 10:16:48;;;;;;;;;;;;;;;-144.99;63.18;52234.09;5061777;28;19928;-72
2022/09/14 10:19:15;;;;;;;;;;;;;;;-144.99;63.28;52240.19;5063795;28;19967;-72
2022/09/14 10:21:56;;;;;;;;;;;;;;;-144.99;63.18;52195.34;5062578;28;20905;-73
2022/09/14 10:24:22;;;;;;;;;;;;;;;-144.99;62.97;52207.59;5055112;28;19924;-72
2022/09/14 10:26:49;;;;;;;;;;;;;;;-144.99;61.18;52187.19;5057120;28;19995;-71
2022/09/14 10:29:29;;;;;;;;;;;;;;;-144.99;58.91;52130.13;5069947;28;19929;-73
2022/09/14 10:32:00;;;;;;;;;;;;;;;-144.99;56.21;52064.91;5071599;28;19928;-72
2022/09/14 10:34:27;;;;;;;;;;;;;;;-144.99;51.98;52115.88;5073625;28;20362;-72
2022/09/14 10:36:59;;;;;;;;;;;;;;;-144.99;49.00;52016.00;5078492;28;20334;-73
2022/09/14 10:39:30;;;;;;;;;;;;;;;-144.99;47.97;52083.25;5079481;28;20192;-72
2022/09/14 10:42:00;;;;;;;;;;;;;;;-144.99;46.11;52121.97;5077717;28;19936;-73
2022/09/14 10:44:34;;;;;;;;;;;;;;;-144.99;46.58;52134.22;5078491;28;19928;-72
2022/09/14 10:47:10;;;;;;;;;;;;;;;-144.99;47.45;52174.97;5075059;28;20391;-71
2022/09/14 10:49:46;;;;;;;;;;;;;;;-144.99;48.09;52174.97;5075499;28;19928;-72
2022/09/14 10:52:16;;;;;;;;;;;;;;;-144.99;49.65;52158.66;5074439;28;19928;-71
2022/09/14 10:55:01;;;;;;;;;;;;;;;-144.99;50.43;52166.81;5074593;28;19929;-71
2022/09/14 10:57:31;;;;;;;;;;;;;;;-144.99;50.29;51979.31;5071527;28;19977;-72
2022/09/14 11:00:02;;;;;;;;;;;;;;;-144.99;48.38;52077.16;5076886;28;19928;-72
2022/09/14 11:02:48;;;;;;;;;;;;;;;-144.99;47.37;52060.84;5075892;28;20525;-72
2022/09/14 11:05:20;;;;;;;;;;;;;;;-144.99;45.98;52077.16;5071670;28;19982;-72
2022/09/14 11:07:52;;;;;;;;;;;;;;;-144.99;44.53;52020.09;5068157;28;19934;-71
2022/09/14 11:10:23;;;;;;;;;;;;;;;-144.99;44.10;52121.97;5061371;28;20028;-72
2022/09/14 11:12:56;;;;;;;;;;;;;;;-144.99;43.96;52134.22;5065360;28;19928;-72
2022/09/14 11:15:27;;;;;;;;;;;;;;;-144.99;43.89;51975.25;5063036;28;19932;-72
2022/09/14 11:18:05;;;;;;;;;;;;;;;-144.99;43.92;52085.31;5061063;28;20452;-72
2022/09/14 11:20:36;;;;;;;;;;;;;;;-144.99;43.61;52064.91;5066121;28;20439;-73
2022/09/14 11:23:18;;;;;;;;;;;;;;;-144.99;42.91;52111.78;5066272;28;19933;-72
2022/09/14 11:25:46;;;;;;;;;;;;;;;-144.99;42.93;52138.28;5066536;28;19955;-72
2022/09/14 11:28:16;;;;;;;;;;;;;;;-144.99;43.33;52158.66;5065634;28;20042;-71
2022/09/14 11:30:45;;;;;;;;;;;;;;;-144.99;44.26;52146.44;5066789;28;19936;-73
2022/09/14 11:33:18;;;;;;;;;;;;;;;-144.99;45.15;52142.38;5054628;28;19928;-72
2022/09/14 11:35:47;;;;;;;;;;;;;;;-144.99;45.94;52170.91;5065754;28;19987;-71
2022/09/14 11:38:16;;;;;;;;;;;;;;;-144.99;46.88;52185.16;5065086;28;19932;-71
2022/09/14 11:40:45;;;;;;;;;;;;;;;-144.99;47.21;52179.06;5066303;28;19968;-72
2022/09/14 11:43:14;;;;;;;;;;;;;;;-144.99;47.10;52179.06;5065379;28;19929;-73
2022/09/14 11:45:42;;;;;;;;;;;;;;;-144.99;47.70;52195.34;5066762;28;19947;-72
2022/09/14 11:48:11;;;;;;;;;;;;;;;-144.99;48.12;52191.28;5063839;28;19940;-73
2022/09/14 11:50:42;;;;;;;;;;;;;;;-144.99;48.61;52219.81;5066480;28;19929;-74
2022/09/14 11:53:10;;;;;;;;;;;;;;;-144.99;50.15;52225.94;5065535;28;19929;-72
2022/09/14 11:55:40;;;;;;;;;;;;;;;-144.99;50.50;52187.19;5066804;28;19929;-73
2022/09/14 11:58:07;;;;;;;;;;;;;;;-144.99;51.25;52191.28;5065497;28;19929;-72
2022/09/14 12:00:45;;;;;;;;;;;;;;;-144.99;51.90;52256.50;5066306;28;19928;-72
2022/09/14 12:03:18;;;;;;;;;;;;;;;-144.99;52.26;52252.44;5061785;28;20003;-72
2022/09/14 12:05:46;;;;;;;;;;;;;;;-144.99;52.75;52215.75;5065843;28;20365;-74
2022/09/14 12:08:27;;;;;;;;;;;;;;;-144.99;53.17;52240.19;5065865;28;19928;-72
2022/09/14 12:11:16;;;;;;;;;;;;;;;-144.99;53.62;52207.59;5065549;28;19940;-72
2022/09/14 12:13:42;;;;;;;;;;;;;;;-144.99;53.79;52232.03;5053496;28;19965;-73
2022/09/14 12:16:09;;;;;;;;;;;;;;;-144.99;53.62;52195.34;5063768;28;20379;-72
2022/09/14 12:18:36;;;;;;;;;;;;;;;-144.99;53.63;52181.09;5065279;28;20023;-74
2022/09/14 12:21:06;;;;;;;;;;;;;;;-144.99;53.24;52179.06;5065484;28;20275;-72
2022/09/14 12:23:42;;;;;;;;;;;;;;;-144.99;52.45;52191.28;5065958;28;20039;-73
2022/09/14 12:26:23;;;;;;;;;;;;;;;-144.99;51.72;52189.25;5064969;28;19951;-75
2022/09/14 12:28:51;;;;;;;;;;;;;;;-144.99;50.17;52109.75;5065553;28;20260;-72